地図

経路データ

SID SEASON NUMBER BASIN SUBBASIN NAME ISO_TIME NATURE LAT LON WMO_WIND WMO_PRES WMO_AGENCY TRACK_TYPE DIST2LAND LANDFALL IFLAG USA_AGENCY USA_ATCF_ID USA_LAT USA_LON USA_RECORD USA_STATUS USA_WIND USA_PRES USA_SSHS USA_R34_NE USA_R34_SE USA_R34_SW USA_R34_NW USA_R50_NE USA_R50_SE USA_R50_SW USA_R50_NW USA_R64_NE USA_R64_SE USA_R64_SW USA_R64_NW USA_POCI USA_ROCI USA_RMW USA_EYE TOKYO_LAT TOKYO_LON TOKYO_GRADE TOKYO_WIND TOKYO_PRES TOKYO_R50_DIR TOKYO_R50_LONG TOKYO_R50_SHORT TOKYO_R30_DIR TOKYO_R30_LONG TOKYO_R30_SHORT TOKYO_LAND CMA_LAT CMA_LON CMA_CAT CMA_WIND CMA_PRES HKO_LAT HKO_LON HKO_CAT HKO_WIND HKO_PRES NEWDELHI_LAT NEWDELHI_LON NEWDELHI_GRADE NEWDELHI_WIND NEWDELHI_PRES NEWDELHI_CI NEWDELHI_DP NEWDELHI_POCI REUNION_LAT REUNION_LON REUNION_TYPE REUNION_WIND REUNION_PRES REUNION_TNUM REUNION_CI REUNION_RMW REUNION_R34_NE REUNION_R34_SE REUNION_R34_SW REUNION_R34_NW REUNION_R50_NE REUNION_R50_SE REUNION_R50_SW REUNION_R50_NW REUNION_R64_NE REUNION_R64_SE REUNION_R64_SW REUNION_R64_NW BOM_LAT BOM_LON BOM_TYPE BOM_WIND BOM_PRES BOM_TNUM BOM_CI BOM_RMW BOM_R34_NE BOM_R34_SE BOM_R34_SW BOM_R34_NW BOM_R50_NE BOM_R50_SE BOM_R50_SW BOM_R50_NW BOM_R64_NE BOM_R64_SE BOM_R64_SW BOM_R64_NW BOM_ROCI BOM_POCI BOM_EYE BOM_POS_METHOD BOM_PRES_METHOD NADI_LAT NADI_LON NADI_CAT NADI_WIND NADI_PRES WELLINGTON_LAT WELLINGTON_LON WELLINGTON_WIND WELLINGTON_PRES DS824_LAT DS824_LON DS824_STAGE DS824_WIND DS824_PRES TD9636_LAT TD9636_LON TD9636_STAGE TD9636_WIND TD9636_PRES TD9635_LAT TD9635_LON TD9635_WIND TD9635_PRES TD9635_ROCI NEUMANN_LAT NEUMANN_LON NEUMANN_CLASS NEUMANN_WIND NEUMANN_PRES MLC_LAT MLC_LON MLC_CLASS MLC_WIND MLC_PRES USA_GUST BOM_GUST BOM_GUST_PER REUNION_GUST REUNION_GUST_PER USA_SEAHGT USA_SEARAD_NE USA_SEARAD_SE USA_SEARAD_SW USA_SEARAD_NW STORM_SPEED STORM_DIR
1920092S11062 1920 10 SI MM NOT_NAMED 1920-04-01 06:00:00 NR -10.6000 61.7000 reunion main 1146 1103 _____O________ -1 -10.6000 61.7000 99 9.90000 9 226
1920092S11062 1920 10 SI MM NOT_NAMED 1920-04-01 09:00:00 NR -10.9104 61.3698 main 1103 1060 _____P________ -1 -10.9104 61.3698 99 9 226
1920092S11062 1920 10 SI MM NOT_NAMED 1920-04-01 12:00:00 NR -11.2197 61.0384 main 1056 1014 _____P________ -1 -11.2197 61.0384 99 9 227
1920092S11062 1920 10 SI MM NOT_NAMED 1920-04-01 15:00:00 NR -11.5269 60.7053 main 1014 972 _____P________ -1 -11.5269 60.7053 99 9 227
1920092S11062 1920 10 SI MM NOT_NAMED 1920-04-01 18:00:00 NR -11.8310 60.3702 main 972 931 _____P________ -1 -11.8310 60.3702 99 9 227
1920092S11062 1920 10 SI MM NOT_NAMED 1920-04-01 21:00:00 NR -12.1313 60.0326 main 928 887 _____P________ -1 -12.1313 60.0326 99 9 228
1920092S11062 1920 10 SI MM NOT_NAMED 1920-04-02 00:00:00 NR -12.4268 59.6920 main 887 847 _____P________ -1 -12.4268 59.6920 99 9 229
1920092S11062 1920 10 SI MM NOT_NAMED 1920-04-02 03:00:00 NR -12.7167 59.3480 main 845 806 _____P________ -1 -12.7167 59.3480 99 9 230
1920092S11062 1920 10 SI MM NOT_NAMED 1920-04-02 06:00:00 NR -13.0000 59.0000 reunion main 806 768 _____O________ -1 -13.0000 59.0000 99 9.90000 9 231
1920092S11062 1920 10 SI MM NOT_NAMED 1920-04-02 09:00:00 NR -13.2764 58.6499 main 767 741 _____P________ -1 -13.2764 58.6499 99 9 231
1920092S11062 1920 10 SI MM NOT_NAMED 1920-04-02 12:00:00 NR -13.5477 58.3087 main 741 705 _____P________ -1 -13.5477 58.3087 99 8 230
1920092S11062 1920 10 SI MM NOT_NAMED 1920-04-02 15:00:00 NR -13.8162 57.9897 main 705 671 _____P________ -1 -13.8162 57.9897 99 8 227
1920092S11062 1920 10 SI MM NOT_NAMED 1920-04-02 18:00:00 NR -14.0841 57.7064 main 671 649 _____P________ -1 -14.0841 57.7064 99 7 223
1920092S11062 1920 10 SI MM NOT_NAMED 1920-04-02 21:00:00 NR -14.3541 57.4722 main 637 615 _____P________ -1 -14.3541 57.4722 99 7 216
1920092S11062 1920 10 SI MM NOT_NAMED 1920-04-03 00:00:00 NR -14.6284 57.3007 main 615 582 _____P________ -1 -14.6284 57.3007 99 6 205
1920092S11062 1920 10 SI MM NOT_NAMED 1920-04-03 03:00:00 NR -14.9095 57.2054 main 582 549 _____P________ -1 -14.9095 57.2054 99 6 190
1920092S11062 1920 10 SI MM NOT_NAMED 1920-04-03 06:00:00 NR -15.2000 57.2000 reunion main 549 515 _____O________ -1 -15.2000 57.2000 99 9.90000 6 169
1920092S11062 1920 10 SI MM NOT_NAMED 1920-04-03 09:00:00 NR -15.5356 57.3328 main 515 469 _____P________ -1 -15.5356 57.3328 99 8 153
1920092S11062 1920 10 SI MM NOT_NAMED 1920-04-03 12:00:00 NR -15.8835 57.5607 main 469 436 _____P________ -1 -15.8835 57.5607 99 9 144
1920092S11062 1920 10 SI MM NOT_NAMED 1920-04-03 15:00:00 NR -16.2359 57.8640 main 436 395 _____P________ -1 -16.2359 57.8640 99 10 138
1920092S11062 1920 10 SI MM NOT_NAMED 1920-04-03 18:00:00 NR -16.5851 58.2224 main 395 367 _____P________ -1 -16.5851 58.2224 99 10 134
1920092S11062 1920 10 SI MM NOT_NAMED 1920-04-03 21:00:00 NR -16.9236 58.6158 main 370 348 _____P________ -1 -16.9236 58.6158 99 10 131
1920092S11062 1920 10 SI MM NOT_NAMED 1920-04-04 00:00:00 NR -17.2438 59.0237 main 352 336 _____P________ -1 -17.2438 59.0237 99 10 128
1920092S11062 1920 10 SI MM NOT_NAMED 1920-04-04 03:00:00 NR -17.5383 59.4254 main 341 331 _____P________ -1 -17.5383 59.4254 99 9 127
1920092S11062 1920 10 SI MM NOT_NAMED 1920-04-04 06:00:00 NR -17.8000 59.8000 reunion main 339 337 _____O________ -1 -17.8000 59.8000 99 9.90000 8 128
1920092S11062 1920 10 SI MM NOT_NAMED 1920-04-04 09:00:00 NR -18.0023 60.0430 main 337 337 _____P________ -1 -18.0023 60.0430 99 6 130
1920092S11062 1920 10 SI MM NOT_NAMED 1920-04-04 12:00:00 NR -18.1726 60.2661 main 346 346 _____P________ -1 -18.1726 60.2661 99 5 127
1920092S11062 1920 10 SI MM NOT_NAMED 1920-04-04 15:00:00 NR -18.3178 60.4765 main 356 350 _____P________ -1 -18.3178 60.4765 99 5 125
1920092S11062 1920 10 SI MM NOT_NAMED 1920-04-04 18:00:00 NR -18.4446 60.6818 main 367 362 _____P________ -1 -18.4446 60.6818 99 5 122
1920092S11062 1920 10 SI MM NOT_NAMED 1920-04-04 21:00:00 NR -18.5595 60.8893 main 375 375 _____P________ -1 -18.5595 60.8893 99 5 119
1920092S11062 1920 10 SI MM NOT_NAMED 1920-04-05 00:00:00 NR -18.6694 61.1064 main 389 389 _____P________ -1 -18.6694 61.1064 99 5 117
1920092S11062 1920 10 SI MM NOT_NAMED 1920-04-05 03:00:00 NR -18.7807 61.3408 main 403 403 _____P________ -1 -18.7807 61.3408 99 5 116
1920092S11062 1920 10 SI MM NOT_NAMED 1920-04-05 06:00:00 NR -18.9000 61.6000 reunion main 427 427 _____O________ -1 -18.9000 61.6000 99 9.90000 6 117
1920092S11062 1920 10 SI MM NOT_NAMED 1920-04-05 09:00:00 NR -19.0411 61.8857 main 453 449 _____P________ -1 -19.0411 61.8857 99 6 117
1920092S11062 1920 10 SI MM NOT_NAMED 1920-04-05 12:00:00 NR -19.1850 62.1913 main 476 476 _____P________ -1 -19.1850 62.1913 99 7 116
1920092S11062 1920 10 SI MM NOT_NAMED 1920-04-05 15:00:00 NR -19.3333 62.5178 main 504 504 _____P________ -1 -19.3333 62.5178 99 7 115
1920092S11062 1920 10 SI MM NOT_NAMED 1920-04-05 18:00:00 NR -19.4877 62.8662 main 540 540 _____P________ -1 -19.4877 62.8662 99 8 115
1920092S11062 1920 10 SI MM NOT_NAMED 1920-04-05 21:00:00 NR -19.6499 63.2375 main 569 569 _____P________ -1 -19.6499 63.2375 99 8 115
1920092S11062 1920 10 SI MM NOT_NAMED 1920-04-06 00:00:00 NR -19.8216 63.6329 main 608 608 _____P________ -1 -19.8216 63.6329 99 8 115
1920092S11062 1920 10 SI MM NOT_NAMED 1920-04-06 03:00:00 NR -20.0044 64.0533 main 658 658 _____P________ -1 -20.0044 64.0533 99 9 115
1920092S11062 1920 10 SI MM NOT_NAMED 1920-04-06 06:00:00 NR -20.2000 64.5000 reunion main 698 698 _____O________ -1 -20.2000 64.5000 99 9.90000 10 115
1920092S11062 1920 10 SI MM NOT_NAMED 1920-04-06 09:00:00 NR -20.4222 64.9883 main 750 750 _____P________ -1 -20.4222 64.9883 99 11 116
1920092S11062 1920 10 SI MM NOT_NAMED 1920-04-06 12:00:00 NR -20.6584 65.5083 main 803 803 _____P________ -1 -20.6584 65.5083 99 11 116
1920092S11062 1920 10 SI MM NOT_NAMED 1920-04-06 15:00:00 NR -20.9037 66.0515 main 866 866 _____P________ -1 -20.9037 66.0515 99 11 116
1920092S11062 1920 10 SI MM NOT_NAMED 1920-04-06 18:00:00 NR -21.1532 66.6089 main 920 920 _____P________ -1 -21.1532 66.6089 99 12 116
1920092S11062 1920 10 SI MM NOT_NAMED 1920-04-06 21:00:00 NR -21.4022 67.1716 main 984 984 _____P________ -1 -21.4022 67.1716 99 12 115
1920092S11062 1920 10 SI MM NOT_NAMED 1920-04-07 00:00:00 NR -21.6460 67.7305 main 1037 1037 _____P________ -1 -21.6460 67.7305 99 11 115
1920092S11062 1920 10 SI MM NOT_NAMED 1920-04-07 03:00:00 NR -21.8800 68.2764 main 1103 1103 _____P________ -1 -21.8800 68.2764 99 11 115
1920092S11062 1920 10 SI MM NOT_NAMED 1920-04-07 06:00:00 NR -22.1000 68.8000 reunion main 1157 1157 _____O________ -1 -22.1000 68.8000 99 9.90000 10 114
1920092S11062 1920 10 SI MM NOT_NAMED 1920-04-07 09:00:00 NR -22.2863 69.2631 main 1211 1211 _____P________ -1 -22.2863 69.2631 99 9 113
1920092S11062 1920 10 SI MM NOT_NAMED 1920-04-07 12:00:00 NR -22.4603 69.7061 main 1255 1255 _____P________ -1 -22.4603 69.7061 99 9 113
1920092S11062 1920 10 SI MM NOT_NAMED 1920-04-07 15:00:00 NR -22.6248 70.1334 main 1297 1297 _____P________ -1 -22.6248 70.1334 99 8 112
1920092S11062 1920 10 SI MM NOT_NAMED 1920-04-07 18:00:00 NR -22.7825 70.5497 main 1342 1342 _____P________ -1 -22.7825 70.5497 99 8 112
1920092S11062 1920 10 SI MM NOT_NAMED 1920-04-07 21:00:00 NR -22.9363 70.9598 main 1394 1394 _____P________ -1 -22.9363 70.9598 99 8 112
1920092S11062 1920 10 SI MM NOT_NAMED 1920-04-08 00:00:00 NR -23.0887 71.3683 main 1438 1438 _____P________ -1 -23.0887 71.3683 99 8 112
1920092S11062 1920 10 SI MM NOT_NAMED 1920-04-08 03:00:00 NR -23.2424 71.7801 main 1480 1480 _____P________ -1 -23.2424 71.7801 99 8 112
1920092S11062 1920 10 SI MM NOT_NAMED 1920-04-08 06:00:00 NR -23.4000 72.2000 reunion main 1524 1524 _____O________ -1 -23.4000 72.2000 99 9.90000 9 112
1920092S11062 1920 10 SI MM NOT_NAMED 1920-04-08 09:00:00 NR -23.5846 72.6877 main 1579 1579 _____P________ -1 -23.5846 72.6877 99 10 112
1920092S11062 1920 10 SI MM NOT_NAMED 1920-04-08 12:00:00 NR -23.7731 73.1867 main 1633 1633 _____P________ -1 -23.7731 73.1867 99 10 112
1920092S11062 1920 10 SI MM NOT_NAMED 1920-04-08 15:00:00 NR -23.9620 73.6878 main 1687 1687 _____P________ -1 -23.9620 73.6878 99 10 112
1920092S11062 1920 10 SI MM NOT_NAMED 1920-04-08 18:00:00 NR -24.1480 74.1819 main 1739 1739 _____P________ -1 -24.1480 74.1819 99 10 112
1920092S11062 1920 10 SI MM NOT_NAMED 1920-04-08 21:00:00 NR -24.3279 74.6596 main 1793 1793 _____P________ -1 -24.3279 74.6596 99 9 112
1920092S11062 1920 10 SI MM NOT_NAMED 1920-04-09 00:00:00 NR -24.4985 75.1116 main 1837 1837 _____P________ -1 -24.4985 75.1116 99 9 113
1920092S11062 1920 10 SI MM NOT_NAMED 1920-04-09 03:00:00 NR -24.6569 75.5282 main 1881 1881 _____P________ -1 -24.6569 75.5282 99 8 113
1920092S11062 1920 10 SI MM NOT_NAMED 1920-04-09 06:00:00 NR -24.8000 75.9000 reunion main 1923 1923 _____O________ -1 -24.8000 75.9000 99 9.90000 7 113
1920092S11062 1920 10 SI MM NOT_NAMED 1920-04-09 09:00:00 NR -24.9260 76.2200 main 1954 1954 _____P________ -1 -24.9260 76.2200 99 6 114
1920092S11062 1920 10 SI MM NOT_NAMED 1920-04-09 12:00:00 NR -25.0363 76.4921 main 1986 1986 _____P________ -1 -25.0363 76.4921 99 5 114
1920092S11062 1920 10 SI MM NOT_NAMED 1920-04-09 15:00:00 NR -25.1335 76.7230 main 2008 2008 _____P________ -1 -25.1335 76.7230 99 4 115
1920092S11062 1920 10 SI MM NOT_NAMED 1920-04-09 18:00:00 NR -25.2198 76.9197 main 2030 2030 _____P________ -1 -25.2198 76.9197 99 4 116
1920092S11062 1920 10 SI MM NOT_NAMED 1920-04-09 21:00:00 NR -25.2974 77.0888 main 2052 2052 _____P________ -1 -25.2974 77.0888 99 3 117
1920092S11062 1920 10 SI MM NOT_NAMED 1920-04-10 00:00:00 NR -25.3685 77.2373 main 2064 2064 _____P________ -1 -25.3685 77.2373 99 3 118
1920092S11062 1920 10 SI MM NOT_NAMED 1920-04-10 03:00:00 NR -25.4354 77.3720 main 2084 2084 _____P________ -1 -25.4354 77.3720 99 3 119
1920092S11062 1920 10 SI MM NOT_NAMED 1920-04-10 06:00:00 NR -25.5000 77.5000 reunion main 2096 _____O________ -1 -25.5000 77.5000 99 9.90000 3 118

IBTrACS Databaseについて

本データベースは、米国NOAAが公開する1842年以降の世界の熱帯低気圧のベストトラックデータアーカイブInternational Best Track Archive for Climate Stewardship (IBTrACS)を、ウェブで閲覧しやすい形式に変換したものです。

最終更新日:2021-11-26